Time;durP1;ratioP1;P1;durP2;ratioP2;P2;SDS_P1;SDS_P2;PMS_P1;PMS_P2;Temp;Humidity;BMP_temperature;BMP_pressure;BME280_temperature;BME280_humidity;BME280_pressure;Samples;Min_cycle;Max_cycle;Signal;HPM_P1;HPM_P2
2020/12/04 00:02:15;;;;;;;19.70;8.57;;;;;;;1.47;73.67;96521.16;5039096;28;20274;-72
2020/12/04 00:04:40;;;;;;;17.42;8.25;;;;;;;1.46;73.92;96506.97;5039155;28;20032;-73
2020/12/04 00:07:05;;;;;;;16.95;7.95;;;;;;;1.39;73.58;96506.19;5037445;28;20065;-73
2020/12/04 00:09:30;;;;;;;18.83;8.38;;;;;;;1.58;72.93;96509.88;5039524;28;20030;-73
2020/12/04 00:11:56;;;;;;;16.30;8.25;;;;;;;1.62;73.35;96488.97;5038533;28;20033;-74
2020/12/04 00:14:21;;;;;;;16.38;7.88;;;;;;;1.72;72.45;96489.38;5039402;28;20025;-74
2020/12/04 00:16:46;;;;;;;18.20;9.18;;;;;;;1.74;72.27;96495.34;5039557;28;20414;-73
2020/12/04 00:19:12;;;;;;;16.60;8.35;;;;;;;1.71;73.04;96493.09;5040352;28;20418;-73
2020/12/04 00:21:37;;;;;;;16.10;8.00;;;;;;;1.65;73.67;96484.06;5040218;28;20017;-72
2020/12/04 00:24:03;;;;;;;16.25;8.55;;;;;;;1.64;74.19;96505.59;5044853;28;20017;-69
2020/12/04 00:26:28;;;;;;;20.20;9.02;;;;;;;1.70;73.68;96492.28;5054993;28;20041;-71
2020/12/04 00:28:53;;;;;;;16.63;8.30;;;;;;;1.70;73.46;96465.63;5049008;28;20033;-72
2020/12/04 00:31:19;;;;;;;18.55;8.50;;;;;;;1.59;73.98;96442.22;5045798;28;20036;-72
2020/12/04 00:33:44;;;;;;;18.65;8.95;;;;;;;1.53;74.00;96419.88;5035666;28;20102;-72
2020/12/04 00:36:10;;;;;;;18.45;8.25;;;;;;;1.58;73.99;96413.13;5034619;28;20048;-72
2020/12/04 00:38:35;;;;;;;16.88;7.80;;;;;;;1.53;73.49;96411.91;5034551;28;20037;-72
2020/12/04 00:41:02;;;;;;;17.10;8.20;;;;;;;1.61;73.83;96410.06;5029677;28;20028;-72
2020/12/04 00:43:27;;;;;;;17.20;7.80;;;;;;;1.64;73.22;96398.97;5034477;28;20025;-72
2020/12/04 00:45:52;;;;;;;16.02;8.30;;;;;;;1.60;73.47;96377.25;5035699;28;20094;-72
2020/12/04 00:48:18;;;;;;;15.90;7.93;;;;;;;1.59;73.03;96378.28;5036481;28;20021;-72
2020/12/04 00:50:43;;;;;;;17.20;8.27;;;;;;;1.70;72.93;96375.00;5034186;28;20076;-72
2020/12/04 00:53:08;;;;;;;17.20;8.27;;;;;;;1.79;72.27;96382.78;5036126;28;20029;-75
2020/12/04 00:55:34;;;;;;;17.35;8.15;;;;;;;1.73;72.68;96387.91;5036057;28;20059;-74
2020/12/04 00:58:00;;;;;;;16.52;8.52;;;;;;;1.67;72.52;96379.91;5036132;28;20033;-74
2020/12/04 01:00:25;;;;;;;15.00;8.13;;;;;;;1.75;71.99;96393.00;5027552;28;20031;-74
2020/12/04 01:02:51;;;;;;;16.83;7.57;;;;;;;1.72;72.96;96386.25;5034292;28;21019;-74
2020/12/04 01:05:16;;;;;;;17.63;8.70;;;;;;;1.60;73.30;96369.28;5034856;28;20056;-73
2020/12/04 01:07:41;;;;;;;17.30;7.55;;;;;;;1.70;73.04;96377.66;5037045;28;20143;-73
2020/12/04 01:10:06;;;;;;;15.77;7.20;;;;;;;1.73;73.36;96373.75;5053031;28;20479;-73
2020/12/04 01:12:32;;;;;;;16.33;7.60;;;;;;;1.68;73.54;96377.03;5036175;28;20430;-74
2020/12/04 01:14:57;;;;;;;16.13;7.45;;;;;;;1.53;73.62;96379.09;5035678;28;20394;-73
2020/12/04 01:17:22;;;;;;;15.05;7.40;;;;;;;1.62;73.40;96385.84;5035535;28;20052;-74
2020/12/04 01:19:48;;;;;;;15.07;7.25;;;;;;;1.57;73.57;96393.63;5034706;28;20026;-72
2020/12/04 01:22:13;;;;;;;16.65;7.25;;;;;;;1.59;73.66;96393.44;5036936;28;20030;-72
2020/12/04 01:24:39;;;;;;;15.45;7.05;;;;;;;1.59;73.26;96372.13;5043374;28;20052;-72
2020/12/04 01:27:04;;;;;;;15.98;7.43;;;;;;;1.65;72.63;96376.63;5058638;28;20029;-72
2020/12/04 01:29:30;;;;;;;14.80;7.50;;;;;;;1.73;72.10;96363.09;5042819;28;20034;-72
2020/12/04 01:31:55;;;;;;;15.68;7.28;;;;;;;1.68;72.57;96366.38;5043343;28;20037;-72
2020/12/04 01:34:20;;;;;;;16.05;7.38;;;;;;;1.84;72.03;96373.13;5030540;28;20580;-72
2020/12/04 01:36:49;;;;;;;13.15;6.85;;;;;;;1.73;72.19;96350.59;5043118;28;20109;-73
2020/12/04 01:39:14;;;;;;;12.50;7.13;;;;;;;1.70;72.94;96377.66;5044054;28;20032;-73
2020/12/04 01:41:39;;;;;;;14.65;7.68;;;;;;;1.68;72.91;96344.25;5048747;28;20037;-73
2020/12/04 01:44:05;;;;;;;14.10;7.45;;;;;;;1.73;73.66;96331.13;5042386;28;20044;-73
2020/12/04 01:46:30;;;;;;;15.73;7.50;;;;;;;1.65;73.67;96347.31;5041860;28;20036;-74
2020/12/04 01:48:56;;;;;;;16.92;7.70;;;;;;;1.54;73.84;96344.25;5040804;28;20086;-73
2020/12/04 01:51:22;;;;;;;15.65;7.63;;;;;;;1.66;73.71;96327.63;5042058;28;20503;-73
2020/12/04 01:53:50;;;;;;;15.52;7.65;;;;;;;1.52;73.64;96338.31;5043214;28;20085;-73
2020/12/04 01:56:15;;;;;;;17.60;8.77;;;;;;;1.66;73.73;96332.97;5043582;28;20021;-73
2020/12/04 01:58:41;;;;;;;16.67;7.72;;;;;;;1.68;73.77;96328.25;5044288;28;20055;-73
2020/12/04 02:01:07;;;;;;;16.42;7.63;;;;;;;1.66;73.22;96322.31;5045563;28;20022;-74
2020/12/04 02:03:34;;;;;;;13.68;7.47;;;;;;;1.54;73.75;96328.25;5038356;28;20029;-74
2020/12/04 02:06:00;;;;;;;17.15;8.05;;;;;;;1.51;74.26;96335.84;5032072;28;20455;-74
2020/12/04 02:08:47;;;;;;;15.35;7.28;;;;;;;1.62;73.83;96321.06;5031456;28;20383;-73
2020/12/04 02:11:17;;;;;;;17.92;7.88;;;;;;;1.60;73.58;96309.78;5030807;28;20507;-74
2020/12/04 02:13:45;;;;;;;13.82;7.18;;;;;;;1.48;74.08;96310.44;5032907;28;20105;-74
2020/12/04 02:16:13;;;;;;;13.75;7.32;;;;;;;1.42;74.25;96302.47;5031347;28;20057;-74
2020/12/04 02:18:38;;;;;;;14.02;7.00;;;;;;;1.41;74.50;96306.97;5030134;28;20021;-74
2020/12/04 02:21:04;;;;;;;14.93;7.55;;;;;;;1.58;74.45;96298.56;5031238;28;20396;-74
2020/12/04 02:23:30;;;;;;;17.73;7.72;;;;;;;1.50;74.79;96297.75;5032264;28;20103;-74
2020/12/04 02:25:56;;;;;;;13.55;6.85;;;;;;;1.52;74.19;96293.03;5022221;28;20034;-74
2020/12/04 02:28:35;;;;;;;13.02;6.85;;;;;;;1.49;74.88;96303.25;5031893;28;20036;-71
2020/12/04 02:31:01;;;;;;;14.77;7.55;;;;;;;1.32;75.56;96278.91;5031323;28;20021;-72
2020/12/04 02:33:26;;;;;;;15.35;8.00;;;;;;;1.36;75.87;96300.63;5031470;28;20415;-72
2020/12/04 02:35:52;;;;;;;16.98;7.75;;;;;;;1.38;75.88;96302.03;5031342;28;20029;-71
2020/12/04 02:38:17;;;;;;;17.00;7.65;;;;;;;1.41;75.61;96300.81;5031196;28;20029;-70
2020/12/04 02:40:42;;;;;;;20.25;8.00;;;;;;;1.33;75.89;96293.84;5031716;28;20037;-71
2020/12/04 02:43:08;;;;;;;14.68;7.18;;;;;;;1.31;76.16;96291.41;5026199;28;20083;-70
2020/12/04 02:45:33;;;;;;;17.60;8.05;;;;;;;1.20;76.65;96277.91;5031643;28;20025;-71
2020/12/04 02:47:58;;;;;;;15.13;7.22;;;;;;;1.37;76.65;96288.94;5043144;28;20121;-71
2020/12/04 02:50:23;;;;;;;19.52;7.50;;;;;;;1.29;76.30;96280.16;5030502;28;20039;-70
2020/12/04 02:52:49;;;;;;;17.70;8.05;;;;;;;1.24;75.99;96274.63;5043810;28;20445;-71
2020/12/04 02:55:14;;;;;;;13.82;7.55;;;;;;;1.29;76.58;96277.47;5044628;28;20029;-71
2020/12/04 02:57:39;;;;;;;13.25;7.30;;;;;;;1.27;76.40;96257.41;5031815;28;20476;-71
2020/12/04 03:00:05;;;;;;;12.20;6.20;;;;;;;1.65;73.52;96256.69;5031568;28;20027;-71
2020/12/04 03:02:30;;;;;;;11.13;5.72;;;;;;;1.75;72.86;96254.41;5031619;28;20033;-71
2020/12/04 03:04:55;;;;;;;15.07;7.18;;;;;;;1.73;73.85;96251.16;5031659;28;20041;-71
2020/12/04 03:07:20;;;;;;;14.60;7.22;;;;;;;1.67;74.91;96251.97;5031495;28;20467;-71
2020/12/04 03:09:46;;;;;;;13.75;7.05;;;;;;;1.53;75.11;96244.03;5031500;28;20033;-70
2020/12/04 03:12:11;;;;;;;13.82;7.03;;;;;;;1.52;75.63;96237.06;5031009;28;20040;-71
2020/12/04 03:14:36;;;;;;;13.10;6.70;;;;;;;1.54;75.47;96237.66;5032910;28;20224;-70
2020/12/04 03:17:01;;;;;;;15.75;7.25;;;;;;;1.52;74.45;96238.91;5033865;28;20112;-70
2020/12/04 03:19:27;;;;;;;14.48;6.63;;;;;;;1.50;73.98;96243.63;5035820;28;20467;-70
2020/12/04 03:21:52;;;;;;;13.60;6.85;;;;;;;1.62;74.02;96243.78;5035221;28;20040;-70
2020/12/04 03:24:17;;;;;;;12.40;6.40;;;;;;;1.58;74.07;96237.25;5036095;28;20061;-70
2020/12/04 03:26:42;;;;;;;16.10;6.80;;;;;;;1.60;74.22;96249.34;5034783;28;20037;-70
2020/12/04 03:29:08;;;;;;;13.18;6.30;;;;;;;1.57;75.17;96256.91;5037227;28;20079;-70
2020/12/04 03:31:33;;;;;;;12.68;6.63;;;;;;;1.51;75.76;96263.91;5055328;28;20041;-70
2020/12/04 03:33:58;;;;;;;12.70;6.85;;;;;;;1.45;75.90;96273.56;5055586;28;20449;-71
2020/12/04 03:36:24;;;;;;;14.35;7.10;;;;;;;1.48;76.13;96283.78;5053671;28;20034;-71
2020/12/04 03:38:49;;;;;;;13.27;6.50;;;;;;;1.36;76.19;96272.13;5052965;28;20057;-71
2020/12/04 03:41:14;;;;;;;11.93;6.43;;;;;;;1.45;75.75;96284.22;5053778;28;20022;-71
2020/12/04 03:43:42;;;;;;;12.57;6.38;;;;;;;1.49;76.26;96292.59;5053331;28;20072;-71
2020/12/04 03:46:10;;;;;;;13.15;7.07;;;;;;;1.49;76.23;96293.44;5052894;28;20040;-70
2020/12/04 03:48:36;;;;;;;15.43;6.90;;;;;;;1.48;75.96;96277.66;5053294;28;20029;-70
2020/12/04 03:51:01;;;;;;;14.30;6.95;;;;;;;1.50;76.07;96281.75;5052817;28;20032;-71
2020/12/04 03:53:27;;;;;;;14.05;6.47;;;;;;;1.56;76.39;96273.94;5053195;28;20029;-70
2020/12/04 03:55:52;;;;;;;13.95;6.82;;;;;;;1.57;75.60;96279.06;5052032;28;20030;-70
2020/12/04 03:58:17;;;;;;;12.73;6.20;;;;;;;1.61;75.00;96301.59;5054521;28;20025;-70
2020/12/04 04:00:42;;;;;;;10.23;5.65;;;;;;;1.78;74.76;96301.16;5066414;28;20029;-71
2020/12/04 04:03:09;;;;;;;12.00;6.40;;;;;;;1.78;74.25;96291.31;5053560;28;20017;-70
2020/12/04 04:05:34;;;;;;;12.05;6.40;;;;;;;1.67;74.46;96290.09;5051458;28;20029;-70
2020/12/04 04:07:59;;;;;;;12.77;6.55;;;;;;;1.64;74.65;96305.69;5040143;28;20031;-71
2020/12/04 04:10:24;;;;;;;13.05;6.40;;;;;;;1.73;74.90;96310.59;5033830;28;20040;-70
2020/12/04 04:12:50;;;;;;;13.85;6.47;;;;;;;1.82;74.89;96303.19;5035731;28;20036;-70
2020/12/04 04:15:15;;;;;;;15.02;6.95;;;;;;;1.81;74.71;96280.25;5033995;28;20120;-70
2020/12/04 04:17:40;;;;;;;16.90;8.05;;;;;;;1.77;75.15;96292.34;5026784;28;20032;-71
2020/12/04 04:20:06;;;;;;;17.35;7.30;;;;;;;1.69;75.13;96289.91;5034930;28;20036;-70
2020/12/04 04:22:31;;;;;;;19.30;7.18;;;;;;;1.72;75.53;96270.81;5035064;28;20033;-70
2020/12/04 04:24:56;;;;;;;13.43;6.90;;;;;;;1.59;75.46;96277.00;5057050;22;20094;-71
2020/12/04 04:27:21;;;;;;;13.35;7.57;;;;;;;1.77;75.13;96273.69;5029684;28;20029;-70
2020/12/04 04:29:47;;;;;;;15.27;7.68;;;;;;;1.72;75.82;96281.47;5025566;28;20467;-71
2020/12/04 04:32:12;;;;;;;14.18;7.22;;;;;;;1.54;76.13;96288.28;5028008;28;20028;-71
2020/12/04 04:34:37;;;;;;;14.07;6.75;;;;;;;1.63;75.75;96266.75;5020285;28;20481;-71
2020/12/04 04:37:03;;;;;;;14.68;7.40;;;;;;;1.61;75.91;96279.47;5024822;28;20772;-70
2020/12/04 04:39:28;;;;;;;13.50;6.90;;;;;;;1.51;76.84;96270.06;5029649;28;20036;-70
2020/12/04 04:41:55;;;;;;;16.23;7.45;;;;;;;1.44;76.45;96279.09;5033749;28;20104;-70
2020/12/04 04:44:21;;;;;;;14.82;6.90;;;;;;;1.59;77.16;96292.19;5033435;28;20418;-71
2020/12/04 04:47:02;;;;;;;14.02;7.20;;;;;;;1.68;76.79;96282.94;5024201;28;20152;-71
2020/12/04 04:49:28;;;;;;;14.52;8.10;;;;;;;1.63;77.15;96293.41;5015211;28;20022;-70
2020/12/04 04:51:56;;;;;;;15.05;7.75;;;;;;;1.73;77.00;96288.47;5020447;28;20399;-71
2020/12/04 04:54:23;;;;;;;16.60;7.95;;;;;;;1.80;76.46;96267.91;5027247;28;20475;-71
2020/12/04 04:56:52;;;;;;;14.60;7.18;;;;;;;1.64;77.00;96287.03;5036952;28;20021;-71
2020/12/04 04:59:22;;;;;;;16.05;7.97;;;;;;;1.56;77.20;96276.63;5032905;28;20025;-71
2020/12/04 05:01:49;;;;;;;16.88;8.13;;;;;;;1.53;77.44;96277.84;5033800;28;20033;-71
2020/12/04 05:04:15;;;;;;;13.68;7.45;;;;;;;1.46;76.99;96283.19;5033097;28;20026;-70
2020/12/04 05:06:41;;;;;;;16.83;8.77;;;;;;;1.51;77.47;96279.91;5027557;28;20026;-71
2020/12/04 05:09:09;;;;;;;17.63;7.93;;;;;;;1.46;77.79;96304.50;5012906;28;20032;-70
2020/12/04 05:11:35;;;;;;;16.20;8.15;;;;;;;1.50;78.45;96318.25;5044307;28;20037;-71
2020/12/04 05:14:17;;;;;;;15.27;7.88;;;;;;;1.52;76.94;96308.19;5048419;28;20029;-71
2020/12/04 05:16:45;;;;;;;11.40;6.95;;;;;;;1.59;75.70;96297.50;5025577;28;20021;-71
2020/12/04 05:19:11;;;;;;;15.60;6.97;;;;;;;1.56;75.26;96290.75;5027058;28;20029;-71
2020/12/04 05:21:37;;;;;;;14.73;6.50;;;;;;;1.74;75.08;96303.44;5014341;28;20026;-70
2020/12/04 05:24:04;;;;;;;11.63;6.45;;;;;;;1.86;74.90;96287.59;5030531;28;20026;-71
2020/12/04 05:26:37;;;;;;;14.45;6.72;;;;;;;1.92;75.50;96289.44;5021244;28;20021;-70
2020/12/04 05:29:04;;;;;;;13.15;6.47;;;;;;;1.81;75.80;96274.91;5031585;28;20176;-71
2020/12/04 05:31:35;;;;;;;12.77;6.88;;;;;;;1.75;76.25;96263.22;5029526;28;20789;-72
2020/12/04 05:34:19;;;;;;;11.63;6.22;;;;;;;1.88;74.90;96258.88;5016220;28;20034;-72
2020/12/04 05:36:45;;;;;;;14.13;6.65;;;;;;;1.92;74.49;96244.09;5040282;28;20029;-72
2020/12/04 05:39:10;;;;;;;14.20;6.03;;;;;;;1.91;73.68;96232.63;5042285;28;20471;-72
2020/12/04 05:41:45;;;;;;;15.43;7.40;;;;;;;2.04;72.99;96225.56;5030619;28;20056;-72
2020/12/04 05:44:10;;;;;;;12.98;6.65;;;;;;;2.18;73.13;96227.16;5032963;28;20021;-71
2020/12/04 05:46:35;;;;;;;14.35;6.80;;;;;;;2.11;73.46;96215.69;5040459;28;20029;-74
2020/12/04 05:49:08;;;;;;;12.18;6.03;;;;;;;2.14;73.04;96217.94;5032217;28;20052;-75
2020/12/04 05:51:39;;;;;;;9.60;5.25;;;;;;;2.18;73.33;96216.50;5031490;28;20040;-73
2020/12/04 05:54:07;;;;;;;12.48;5.93;;;;;;;2.25;72.32;96217.25;5028274;28;20112;-75
2020/12/04 05:56:33;;;;;;;11.60;5.80;;;;;;;2.36;73.06;96224.59;5044250;28;20029;-75
2020/12/04 05:59:03;;;;;;;10.65;5.90;;;;;;;2.25;73.53;96211.91;5033152;28;20364;-74
2020/12/04 06:01:28;;;;;;;12.35;6.28;;;;;;;2.16;73.72;96208.69;5044864;28;20033;-70
2020/12/04 06:03:57;;;;;;;15.63;6.95;;;;;;;2.26;74.43;96213.56;5033841;28;20475;-73
2020/12/04 06:06:26;;;;;;;16.23;7.10;;;;;;;2.06;74.40;96224.34;5031209;28;20057;-71
2020/12/04 06:08:58;;;;;;;12.45;6.00;;;;;;;2.03;75.00;96213.28;5031750;28;21037;-72
2020/12/04 06:11:29;;;;;;;16.13;6.25;;;;;;;2.03;75.67;96234.63;5031506;28;20727;-73
2020/12/04 06:13:57;;;;;;;12.27;6.15;;;;;;;2.01;73.48;96212.66;5029927;28;20278;-71
2020/12/04 06:16:22;;;;;;;11.98;5.20;;;;;;;2.24;71.69;96199.63;5033133;28;20017;-71
2020/12/04 06:18:48;;;;;;;9.88;5.25;;;;;;;2.56;69.28;96183.59;5036127;28;20038;-72
2020/12/04 06:21:13;;;;;;;10.77;5.18;;;;;;;2.75;68.47;96184.47;5032427;28;20502;-73
2020/12/04 06:24:05;;;;;;;10.80;4.90;;;;;;;3.02;67.02;96191.22;5030312;28;20120;-71
2020/12/04 06:26:49;;;;;;;9.20;4.97;;;;;;;3.15;67.38;96184.91;5038991;28;20387;-71
2020/12/04 06:29:14;;;;;;;11.15;4.88;;;;;;;3.05;67.35;96169.41;5032112;28;20147;-72
2020/12/04 06:31:39;;;;;;;9.90;5.25;;;;;;;3.09;67.53;96185.78;5031297;28;20136;-72
2020/12/04 06:34:21;;;;;;;10.15;5.10;;;;;;;2.99;68.27;96172.97;5030798;28;20036;-72
2020/12/04 06:36:48;;;;;;;9.48;4.28;;;;;;;2.86;68.21;96183.75;5031890;28;20394;-73
2020/12/04 06:39:30;;;;;;;8.88;5.15;;;;;;;2.81;69.67;96187.09;5031639;28;20029;-72
2020/12/04 06:41:57;;;;;;;13.32;6.10;;;;;;;2.76;71.24;96194.13;5040982;28;20028;-73
2020/12/04 06:44:24;;;;;;;12.05;6.05;;;;;;;2.62;71.71;96196.91;5034222;28;20029;-69
2020/12/04 06:46:51;;;;;;;14.45;8.30;;;;;;;2.58;72.10;96200.22;5033357;28;20593;-69
2020/12/04 06:49:40;;;;;;;10.13;5.03;;;;;;;2.63;70.49;96203.03;5035101;28;20041;-72
2020/12/04 06:52:16;;;;;;;14.32;5.82;;;;;;;2.68;69.37;96184.53;5026840;28;20061;-70
2020/12/04 06:54:45;;;;;;;12.43;5.55;;;;;;;2.92;69.52;96182.06;5033626;28;20410;-70
2020/12/04 06:57:10;;;;;;;9.88;5.32;;;;;;;2.88;68.53;96179.00;5036219;28;20033;-73
2020/12/04 06:59:40;;;;;;;10.65;5.53;;;;;;;2.87;68.64;96193.41;5036278;28;20493;-73
2020/12/04 07:02:11;;;;;;;11.18;5.18;;;;;;;3.05;68.76;96197.97;5036171;28;20025;-74
2020/12/04 07:04:39;;;;;;;7.93;4.20;;;;;;;3.11;66.08;96181.03;5036107;28;20390;-74
2020/12/04 07:07:13;;;;;;;8.75;4.40;;;;;;;3.22;65.94;96187.50;5035580;28;20029;-75
2020/12/04 07:09:40;;;;;;;8.27;4.57;;;;;;;3.15;68.14;96200.94;5034106;28;20438;-67
2020/12/04 07:12:07;;;;;;;17.92;6.03;;;;;;;3.01;69.39;96204.78;5033940;28;20475;-67
2020/12/04 07:14:33;;;;;;;12.15;5.57;;;;;;;2.93;68.71;96194.38;5031025;28;20029;-67
2020/12/04 07:16:59;;;;;;;9.93;4.15;;;;;;;2.99;69.09;96207.69;5031836;28;20052;-67
2020/12/04 07:19:26;;;;;;;10.63;4.95;;;;;;;3.00;69.78;96206.63;5029242;28;20084;-67
2020/12/04 07:21:51;;;;;;;10.85;5.05;;;;;;;3.06;67.30;96210.28;5032233;28;20017;-67
2020/12/04 07:24:17;;;;;;;9.95;4.90;;;;;;;3.09;67.69;96212.50;5032890;28;20029;-67
2020/12/04 07:26:49;;;;;;;12.38;6.07;;;;;;;3.16;66.99;96205.25;5028841;28;20025;-67
2020/12/04 07:29:15;;;;;;;11.55;5.35;;;;;;;3.29;67.54;96215.00;5050148;28;20032;-67
2020/12/04 07:31:44;;;;;;;8.95;4.65;;;;;;;3.15;68.09;96221.50;5031895;28;20026;-67
2020/12/04 07:34:09;;;;;;;14.82;6.20;;;;;;;3.05;68.77;96230.81;5030880;28;20452;-68
2020/12/04 07:36:35;;;;;;;17.42;6.70;;;;;;;2.82;70.96;96241.28;5030904;28;20034;-67
2020/12/04 07:39:02;;;;;;;18.55;6.43;;;;;;;2.91;70.42;96225.81;5029889;28;20021;-67
2020/12/04 07:41:39;;;;;;;12.57;5.15;;;;;;;2.91;69.68;96199.09;5031601;28;20068;-72
2020/12/04 07:44:06;;;;;;;14.02;5.75;;;;;;;2.98;70.63;96207.88;5033581;28;20022;-72
2020/12/04 07:46:35;;;;;;;13.40;5.70;;;;;;;2.98;70.39;96206.03;5033390;28;20095;-69
2020/12/04 07:49:09;;;;;;;15.98;5.88;;;;;;;2.82;70.89;96207.41;5034049;28;20163;-71
2020/12/04 07:51:39;;;;;;;15.82;6.35;;;;;;;2.94;71.06;96206.72;5034553;28;20083;-71
2020/12/04 07:54:18;;;;;;;10.82;4.47;;;;;;;3.10;69.69;96206.13;5035453;28;20495;-69
2020/12/04 07:56:50;;;;;;;10.60;4.32;;;;;;;3.25;68.41;96200.47;5021957;28;20156;-69
2020/12/04 07:59:20;;;;;;;11.23;4.85;;;;;;;3.17;68.29;96182.84;5034609;28;20045;-71
2020/12/04 08:01:45;;;;;;;8.68;4.63;;;;;;;3.17;68.94;96176.66;5032180;28;20026;-72
2020/12/04 08:04:11;;;;;;;18.42;5.63;;;;;;;3.26;69.80;96186.03;5035835;28;20426;-70
2020/12/04 08:06:36;;;;;;;13.95;5.90;;;;;;;3.42;70.84;96190.78;5035065;28;20108;-68
2020/12/04 08:09:19;;;;;;;9.65;4.57;;;;;;;3.43;70.97;96180.91;5046864;28;20045;-71
2020/12/04 08:11:55;;;;;;;11.65;5.05;;;;;;;3.38;71.57;96186.13;5033806;28;20025;-69
2020/12/04 08:14:28;;;;;;;12.55;6.07;;;;;;;3.45;71.71;96178.84;5034829;28;20026;-72
2020/12/04 08:16:57;;;;;;;12.25;6.10;;;;;;;3.26;72.55;96157.47;5030084;28;20038;-70
2020/12/04 08:19:31;;;;;;;11.73;5.72;;;;;;;3.14;73.78;96172.59;5022414;28;20056;-72
2020/12/04 08:21:57;;;;;;;11.38;5.68;;;;;;;3.03;74.35;96174.13;5027673;28;20029;-72
2020/12/04 08:24:28;;;;;;;10.45;5.05;;;;;;;3.07;73.68;96169.19;5035121;28;20028;-69
2020/12/04 08:27:05;;;;;;;10.48;5.32;;;;;;;3.02;72.67;96187.72;5033770;28;20029;-69
2020/12/04 08:29:31;;;;;;;11.05;4.88;;;;;;;3.13;72.71;96170.97;5034553;28;20505;-70
2020/12/04 08:32:10;;;;;;;11.27;5.00;;;;;;;3.17;72.09;96177.50;5033717;28;20037;-71
2020/12/04 08:34:37;;;;;;;9.20;5.15;;;;;;;2.90;73.09;96197.47;5034572;28;20601;-69
2020/12/04 08:37:05;;;;;;;11.27;4.85;;;;;;;3.06;73.26;96188.91;5034503;28;20660;-70
2020/12/04 08:39:39;;;;;;;7.22;4.47;;;;;;;3.26;72.39;96154.78;5032717;28;20075;-72
2020/12/04 08:42:16;;;;;;;9.32;4.55;;;;;;;3.39;72.47;96161.03;5032019;28;20112;-72
2020/12/04 08:44:52;;;;;;;10.63;4.72;;;;;;;3.37;72.61;96147.88;5039782;28;20033;-72
2020/12/04 08:47:28;;;;;;;9.30;4.97;;;;;;;3.60;72.63;96149.88;5041470;28;20033;-73
2020/12/04 08:49:57;;;;;;;10.23;5.43;;;;;;;3.71;71.75;96146.44;5025737;28;20084;-73
2020/12/04 08:52:39;;;;;;;9.18;4.38;;;;;;;3.74;72.26;96115.75;5033608;28;20026;-72
2020/12/04 08:55:22;;;;;;;8.43;4.53;;;;;;;3.91;70.41;96122.13;5033063;28;20058;-69
2020/12/04 08:57:50;;;;;;;10.07;3.88;;;;;;;3.97;68.10;96131.09;5034535;28;20029;-71
2020/12/04 09:00:21;;;;;;;8.82;4.10;;;;;;;4.07;69.28;96109.97;5034474;28;20479;-72
2020/12/04 09:02:46;;;;;;;6.50;3.65;;;;;;;4.20;67.36;96097.44;5028178;28;20017;-70
2020/12/04 09:05:14;;;;;;;7.95;3.35;;;;;;;4.33;67.12;96094.56;5033203;28;20383;-72
2020/12/04 09:07:40;;;;;;;7.22;3.42;;;;;;;4.41;65.78;96096.06;5031349;28;20441;-70
2020/12/04 09:10:08;;;;;;;6.13;3.10;;;;;;;4.53;66.12;96096.88;5029312;28;20041;-70
2020/12/04 09:12:34;;;;;;;8.25;5.10;;;;;;;4.49;70.70;96120.63;5029699;28;20040;-70
2020/12/04 09:14:59;;;;;;;7.85;4.50;;;;;;;4.28;70.81;96113.16;5032069;28;20025;-70
2020/12/04 09:17:25;;;;;;;10.85;4.68;;;;;;;4.35;69.90;96108.53;5030903;28;20040;-70
2020/12/04 09:19:50;;;;;;;8.13;4.40;;;;;;;4.47;69.48;96090.59;5028448;28;20026;-70
2020/12/04 09:22:16;;;;;;;8.40;4.55;;;;;;;4.87;69.29;96110.53;5028570;28;20029;-70
2020/12/04 09:24:42;;;;;;;12.05;6.00;;;;;;;4.66;69.48;96114.59;5030571;28;20103;-70
2020/12/04 09:27:08;;;;;;;15.35;7.20;;;;;;;4.77;69.12;96109.25;5031673;28;20035;-70
2020/12/04 09:29:35;;;;;;;10.15;5.05;;;;;;;4.92;66.61;96127.50;5023705;28;20041;-71
2020/12/04 09:32:09;;;;;;;10.02;4.90;;;;;;;5.36;65.75;96143.22;5029855;28;20029;-71
2020/12/04 09:34:34;;;;;;;10.38;4.90;;;;;;;5.18;65.87;96138.81;5030719;28;20053;-71
2020/12/04 09:37:30;;;;;;;9.60;4.20;;;;;;;5.32;65.96;96155.47;5029551;28;20114;-71
2020/12/04 09:39:58;;;;;;;9.60;4.85;;;;;;;4.91;67.38;96139.28;5008837;28;20040;-72
2020/12/04 09:42:25;;;;;;;11.07;5.32;;;;;;;4.53;68.05;96129.00;5030722;28;20479;-73
2020/12/04 09:44:52;;;;;;;19.05;5.28;;;;;;;4.52;68.24;96167.56;5029795;28;20028;-70
2020/12/04 09:47:18;;;;;;;8.80;4.57;;;;;;;4.48;68.75;96191.31;5029194;28;20021;-71
2020/12/04 09:49:44;;;;;;;12.73;4.90;;;;;;;4.53;68.66;96190.59;5026356;28;20022;-71
2020/12/04 09:52:11;;;;;;;13.82;5.47;;;;;;;4.49;68.00;96184.88;5027742;28;20045;-72
2020/12/04 09:54:39;;;;;;;13.48;6.18;;;;;;;4.55;67.96;96183.97;5028146;28;20025;-72
2020/12/04 09:57:06;;;;;;;12.15;5.68;;;;;;;4.85;68.09;96185.78;5041813;28;20033;-71
2020/12/04 09:59:32;;;;;;;12.02;6.35;;;;;;;4.74;67.49;96165.13;5026575;28;20029;-72
2020/12/04 10:01:58;;;;;;;10.20;5.57;;;;;;;4.79;68.07;96167.94;5027597;28;20033;-71
2020/12/04 10:04:24;;;;;;;11.50;5.47;;;;;;;4.88;67.45;96176.47;5026226;28;20544;-70
2020/12/04 10:06:51;;;;;;;13.80;5.68;;;;;;;4.89;68.10;96153.97;5020772;28;20084;-71
2020/12/04 10:09:16;;;;;;;16.80;5.97;;;;;;;4.77;68.12;96152.09;5025415;28;20112;-72
2020/12/04 10:11:42;;;;;;;16.20;6.00;;;;;;;4.84;68.44;96170.72;5028988;28;20116;-69
2020/12/04 10:14:08;;;;;;;10.05;5.35;;;;;;;4.72;69.74;96175.28;5026959;28;20033;-71
2020/12/04 10:16:33;;;;;;;13.27;5.95;;;;;;;4.62;70.38;96173.16;5027798;28;20025;-70
2020/12/04 10:18:59;;;;;;;12.25;6.35;;;;;;;4.49;71.34;96150.09;5027790;28;20037;-72
2020/12/04 10:21:25;;;;;;;10.25;6.00;;;;;;;4.53;70.60;96159.31;5029733;28;20032;-71
2020/12/04 10:26:17;;;;;;;15.07;6.53;;;;;;;4.50;71.32;96137.50;5066503;22;20049;-71
2020/12/04 10:28:42;;;;;;;14.02;6.00;;;;;;;4.40;71.63;96146.09;5047269;28;20031;-70
2020/12/04 10:31:07;;;;;;;12.02;6.35;;;;;;;4.26;71.11;96129.44;5047061;28;20504;-70
2020/12/04 10:33:32;;;;;;;11.32;5.15;;;;;;;4.47;70.72;96125.41;5047860;28;20033;-70
2020/12/04 10:36:01;;;;;;;12.50;6.10;;;;;;;4.50;71.18;96114.22;5030161;28;20022;-71
2020/12/04 10:38:26;;;;;;;8.60;5.32;;;;;;;4.34;71.11;96122.94;5023300;28;20056;-70
2020/12/04 10:40:51;;;;;;;12.73;5.38;;;;;;;4.30;71.49;96135.16;5024608;28;20036;-70
2020/12/04 10:43:17;;;;;;;14.38;6.25;;;;;;;4.16;72.28;96140.69;5029222;28;20397;-71
2020/12/04 10:45:42;;;;;;;15.68;7.40;;;;;;;3.84;74.05;96155.34;5028657;28;20091;-75
2020/12/04 10:48:07;;;;;;;12.15;7.57;;;;;;;3.65;74.61;96167.94;5028801;28;20559;-74
2020/12/04 10:50:32;;;;;;;14.95;7.45;;;;;;;3.82;75.04;96176.16;5026567;28;20033;-74
2020/12/04 10:52:58;;;;;;;16.05;8.55;;;;;;;3.65;74.51;96183.97;5028677;28;20459;-74
2020/12/04 10:55:23;;;;;;;14.95;7.82;;;;;;;3.75;74.55;96168.22;5024045;28;20029;-75
2020/12/04 10:57:48;;;;;;;16.23;7.68;;;;;;;3.72;75.56;96161.47;5028038;28;20093;-75
2020/12/04 11:00:14;;;;;;;17.92;8.07;;;;;;;3.67;74.38;96208.63;5020986;28;20025;-73
2020/12/04 11:02:41;;;;;;;14.05;7.72;;;;;;;3.64;75.10;96203.72;5027792;28;20032;-69
2020/12/04 11:07:50;;;;;;;15.82;6.90;;;;;;;3.70;76.12;96179.59;5028081;28;20032;-69
2020/12/04 11:10:15;;;;;;;14.07;6.70;;;;;;;3.72;74.35;96187.38;5027442;28;20026;-70
2020/12/04 11:12:41;;;;;;;14.85;7.30;;;;;;;3.78;75.42;96166.94;5029075;28;20475;-69
2020/12/04 11:15:08;;;;;;;15.00;7.18;;;;;;;3.94;75.16;96175.16;5028169;28;20029;-70
2020/12/04 11:17:33;;;;;;;14.27;7.82;;;;;;;3.90;74.94;96165.13;5026663;28;20047;-70
2020/12/04 11:19:58;;;;;;;19.63;7.95;;;;;;;3.82;75.18;96122.66;5029450;28;20104;-70
2020/12/04 11:22:24;;;;;;;14.82;7.78;;;;;;;3.94;75.49;96144.94;5028323;28;20446;-70
2020/12/04 11:24:49;;;;;;;19.20;8.10;;;;;;;4.00;75.18;96135.16;5029140;28;20056;-68
2020/12/04 11:27:14;;;;;;;13.65;7.50;;;;;;;3.94;75.50;96123.53;5024308;28;20033;-73
2020/12/04 11:29:40;;;;;;;15.13;8.10;;;;;;;3.67;75.85;96125.75;5030711;28;20441;-76
2020/12/04 11:32:05;;;;;;;17.85;8.20;;;;;;;3.66;75.79;96130.25;5032217;28;20075;-77
2020/12/04 11:34:30;;;;;;;16.73;8.20;;;;;;;3.95;75.00;96109.91;5046615;28;20032;-76
2020/12/04 11:36:56;;;;;;;14.35;7.35;;;;;;;4.18;74.11;96111.84;5034850;28;20475;-74
2020/12/04 11:39:21;;;;;;;16.55;7.72;;;;;;;4.13;74.34;96103.69;5033386;28;20409;-74
2020/12/04 11:41:47;;;;;;;18.80;8.20;;;;;;;3.89;75.16;96084.06;5033744;28;20047;-73